Time;durP1;ratioP1;P1;durP2;ratioP2;P2;SDS_P1;SDS_P2;PMS_P1;PMS_P2;Temp;Humidity;BMP_temperature;BMP_pressure;BME280_temperature;BME280_humidity;BME280_pressure;Samples;Min_cycle;Max_cycle;Signal;HPM_P1;HPM_P2
2023/04/12 00:01:42;;;;;;;15.33;13.27;;;;;;;10.30;70.79;99567.44;5028396;28;20234;-69
2023/04/12 00:04:13;;;;;;;14.27;12.60;;;;;;;10.21;70.47;99565.03;5029604;28;20559;-70
2023/04/12 00:06:41;;;;;;;14.93;13.17;;;;;;;10.15;70.90;99555.66;5026143;28;20207;-71
2023/04/12 00:09:09;;;;;;;17.67;14.57;;;;;;;10.08;71.72;99557.50;5030131;28;20206;-70
2023/04/12 00:11:38;;;;;;;16.87;14.57;;;;;;;10.04;71.98;99565.31;5029699;28;20191;-70
2023/04/12 00:14:06;;;;;;;17.20;14.67;;;;;;;10.02;71.32;99564.50;5030191;28;20257;-71
2023/04/12 00:16:35;;;;;;;15.83;13.50;;;;;;;9.98;71.89;99561.13;5027016;28;20294;-70
2023/04/12 00:19:03;;;;;;;18.33;14.87;;;;;;;10.01;72.30;99562.78;5030022;28;20257;-71
2023/04/12 00:21:31;;;;;;;20.30;14.53;;;;;;;10.08;72.24;99572.94;5029331;28;20744;-69
2023/04/12 00:24:00;;;;;;;15.73;13.30;;;;;;;10.11;71.92;99567.75;5029443;28;20210;-71
2023/04/12 00:26:28;;;;;;;15.60;13.90;;;;;;;10.12;71.97;99577.16;5029620;28;20606;-72
2023/04/12 00:28:57;;;;;;;18.10;12.80;;;;;;;10.14;71.84;99584.88;5029840;28;20658;-73
2023/04/12 00:31:25;;;;;;;12.93;11.50;;;;;;;10.10;70.12;99573.78;5028833;28;20199;-71
2023/04/12 00:33:53;;;;;;;14.03;12.37;;;;;;;10.03;70.63;99561.88;5028642;28;20234;-70
2023/04/12 00:36:22;;;;;;;13.27;10.97;;;;;;;9.97;70.50;99554.25;5029412;28;20268;-71
2023/04/12 00:38:50;;;;;;;15.17;11.67;;;;;;;9.92;70.52;99554.34;5028778;28;20203;-70
2023/04/12 00:41:17;;;;;;;14.13;11.10;;;;;;;9.88;70.42;99549.28;5029970;28;20214;-70
2023/04/12 00:43:46;;;;;;;11.13;9.67;;;;;;;9.85;70.41;99547.59;5028533;28;20208;-69
2023/04/12 00:46:16;;;;;;;13.87;10.97;;;;;;;9.80;71.00;99546.00;5022394;28;20286;-70
2023/04/12 00:48:46;;;;;;;12.43;10.90;;;;;;;9.74;70.68;99541.78;5030213;28;20207;-70
2023/04/12 00:51:16;;;;;;;12.37;10.50;;;;;;;9.73;71.15;99541.81;5026537;28;20210;-70
2023/04/12 00:53:45;;;;;;;14.10;11.17;;;;;;;9.60;70.61;99536.84;5029934;28;20217;-72
2023/04/12 00:56:13;;;;;;;13.20;10.47;;;;;;;9.61;70.33;99542.84;5029585;28;20735;-70
2023/04/12 00:58:41;;;;;;;12.00;10.53;;;;;;;9.56;70.76;99535.19;5026467;28;20268;-70
2023/04/12 01:01:09;;;;;;;11.90;10.23;;;;;;;9.58;70.68;99543.75;5024330;28;20269;-70
2023/04/12 01:03:41;;;;;;;14.03;11.10;;;;;;;9.56;70.76;99545.47;5026307;28;20654;-69
2023/04/12 01:06:14;;;;;;;12.63;10.40;;;;;;;9.52;70.85;99543.84;5031485;28;20199;-71
2023/04/12 01:08:54;;;;;;;11.73;10.43;;;;;;;9.56;70.50;99542.91;5032532;28;20616;-70
2023/04/12 01:11:31;;;;;;;13.47;11.17;;;;;;;9.58;70.66;99550.63;5034091;28;20268;-72
2023/04/12 01:14:06;;;;;;;13.47;11.20;;;;;;;9.63;70.36;99553.97;5032784;28;20210;-69
2023/04/12 01:16:40;;;;;;;12.03;10.73;;;;;;;9.58;70.36;99551.47;5031320;28;20716;-72
2023/04/12 01:19:29;;;;;;;15.03;11.47;;;;;;;9.59;71.09;99554.88;5032172;28;20231;-70
2023/04/12 01:22:12;;;;;;;14.87;11.70;;;;;;;9.56;70.77;99555.78;5025598;28;20772;-70
2023/04/12 01:24:51;;;;;;;13.17;11.73;;;;;;;9.49;70.46;99549.03;5027659;28;20207;-71
2023/04/12 01:27:34;;;;;;;16.07;11.60;;;;;;;9.51;71.09;99562.72;5031740;28;20226;-70
2023/04/12 01:30:06;;;;;;;13.57;11.40;;;;;;;9.52;71.68;99566.13;5028898;28;20206;-70
2023/04/12 01:32:37;;;;;;;14.50;12.00;;;;;;;9.56;70.48;99570.34;5032765;28;20198;-69
2023/04/12 01:35:08;;;;;;;13.00;10.93;;;;;;;9.56;71.00;99566.06;5033981;28;20223;-70
2023/04/12 01:37:36;;;;;;;15.50;11.53;;;;;;;9.53;70.73;99558.38;5031234;28;20245;-69
2023/04/12 01:40:06;;;;;;;12.13;10.60;;;;;;;9.62;70.08;99568.56;5032135;28;20657;-71
2023/04/12 01:42:35;;;;;;;13.43;11.37;;;;;;;9.57;70.66;99562.63;5032080;28;20219;-71
2023/04/12 01:45:04;;;;;;;14.73;10.53;;;;;;;9.57;70.35;99562.63;5033152;28;20604;-69
2023/04/12 01:47:33;;;;;;;14.27;11.50;;;;;;;9.59;71.09;99570.31;5030150;28;20203;-69
2023/04/12 01:50:14;;;;;;;11.97;10.60;;;;;;;9.61;71.20;99560.84;5032886;28;20662;-70
2023/04/12 01:52:46;;;;;;;13.00;11.20;;;;;;;9.63;71.26;99557.38;5028385;28;20209;-70
2023/04/12 01:55:16;;;;;;;16.30;10.63;;;;;;;9.63;70.27;99552.25;5031604;28;20210;-69
2023/04/12 01:57:47;;;;;;;12.73;10.03;;;;;;;9.59;70.60;99560.88;5032487;28;20202;-70
2023/04/12 02:00:17;;;;;;;12.80;10.37;;;;;;;9.58;71.08;99551.47;5031805;28;20198;-69
2023/04/12 02:02:46;;;;;;;13.63;10.80;;;;;;;9.57;71.42;99544.63;5033044;28;20222;-71
2023/04/12 02:05:15;;;;;;;12.90;11.03;;;;;;;9.59;70.94;99549.75;5030388;28;20214;-70
2023/04/12 02:07:43;;;;;;;13.13;10.17;;;;;;;9.54;70.79;99556.69;5031696;28;20219;-70
2023/04/12 02:10:14;;;;;;;12.10;10.17;;;;;;;9.47;70.91;99544.81;5031807;28;20247;-69
2023/04/12 02:12:42;;;;;;;12.53;10.57;;;;;;;9.46;70.60;99543.91;5033124;28;20280;-70
2023/04/12 02:15:12;;;;;;;11.40;10.20;;;;;;;9.50;71.51;99548.19;5029917;28;20662;-69
2023/04/12 02:17:40;;;;;;;13.70;11.50;;;;;;;9.51;71.43;99547.28;5030801;28;20561;-69
2023/04/12 02:20:10;;;;;;;13.03;11.33;;;;;;;9.53;71.03;99545.53;5031284;28;20211;-69
2023/04/12 02:22:38;;;;;;;12.43;10.90;;;;;;;9.56;70.45;99542.06;5031719;28;20329;-70
2023/04/12 02:25:07;;;;;;;14.00;10.97;;;;;;;9.56;71.08;99534.34;5028149;28;20357;-69
2023/04/12 02:27:35;;;;;;;15.90;11.73;;;;;;;9.56;71.49;99540.34;5028527;28;20202;-70
2023/04/12 02:30:04;;;;;;;11.00;9.60;;;;;;;9.56;71.23;99536.94;5030612;28;20666;-70
2023/04/12 02:32:42;;;;;;;13.63;10.90;;;;;;;9.56;70.73;99535.19;5032125;28;20650;-68
2023/04/12 02:35:12;;;;;;;12.63;10.47;;;;;;;9.56;71.05;99540.34;5032804;28;20214;-70
2023/04/12 02:37:40;;;;;;;15.23;11.60;;;;;;;9.55;71.77;99543.78;5031810;28;20249;-69
2023/04/12 02:40:10;;;;;;;12.63;10.80;;;;;;;9.53;71.23;99547.25;5026239;28;20210;-70
2023/04/12 02:42:38;;;;;;;12.03;10.47;;;;;;;9.50;70.44;99550.75;5031849;28;20269;-70
2023/04/12 02:45:07;;;;;;;13.07;10.70;;;;;;;9.50;70.86;99555.88;5031068;28;20644;-70
2023/04/12 02:47:37;;;;;;;15.13;11.73;;;;;;;9.42;71.31;99547.41;5031389;28;20207;-70
2023/04/12 02:50:06;;;;;;;16.67;11.07;;;;;;;9.40;71.88;99560.31;5029428;28;20637;-70
2023/04/12 02:52:34;;;;;;;12.10;10.77;;;;;;;9.37;71.85;99564.66;5031520;28;20273;-69
2023/04/12 02:55:02;;;;;;;13.57;10.97;;;;;;;9.38;72.50;99559.47;5031353;28;20207;-70
2023/04/12 02:57:30;;;;;;;14.20;11.57;;;;;;;9.40;71.77;99562.88;5028703;28;20268;-70
2023/04/12 02:59:58;;;;;;;13.43;11.90;;;;;;;9.43;71.79;99567.13;5031877;28;20693;-70
2023/04/12 03:02:26;;;;;;;13.10;11.17;;;;;;;9.43;71.56;99555.13;5030487;28;20218;-71
2023/04/12 03:04:56;;;;;;;15.80;11.87;;;;;;;9.44;71.63;99553.41;5031711;28;20202;-71
2023/04/12 03:07:24;;;;;;;13.70;11.70;;;;;;;9.43;71.31;99560.28;5030655;28;20676;-69
2023/04/12 03:09:52;;;;;;;14.63;11.30;;;;;;;9.41;72.03;99561.16;5029797;28;20285;-63
2023/04/12 03:12:20;;;;;;;11.87;10.57;;;;;;;9.40;71.67;99555.16;5031283;28;20203;-63
2023/04/12 03:14:48;;;;;;;15.13;12.03;;;;;;;9.37;71.78;99556.94;5030277;28;20275;-63
2023/04/12 03:17:16;;;;;;;13.73;12.00;;;;;;;9.35;72.19;99568.94;5028852;28;20788;-63
2023/04/12 03:19:44;;;;;;;14.57;12.20;;;;;;;9.35;71.60;99567.25;5026677;28;20202;-63
2023/04/12 03:22:13;;;;;;;18.10;11.80;;;;;;;9.40;71.96;99569.75;5029676;28;20231;-63
2023/04/12 03:24:41;;;;;;;14.73;12.33;;;;;;;9.41;71.84;99568.88;5031171;28;20611;-64
2023/04/12 03:27:09;;;;;;;13.27;11.87;;;;;;;9.39;72.46;99573.19;5029963;28;20221;-63
2023/04/12 03:29:37;;;;;;;14.80;12.03;;;;;;;9.42;71.34;99573.13;5030574;28;20202;-63
2023/04/12 03:32:05;;;;;;;13.80;11.43;;;;;;;9.44;72.18;99571.41;5030543;28;20245;-63
2023/04/12 03:34:33;;;;;;;13.20;11.10;;;;;;;9.44;71.65;99566.25;5030573;28;20198;-63
2023/04/12 03:37:02;;;;;;;14.87;10.97;;;;;;;9.44;72.82;99558.53;5029523;28;20207;-63
2023/04/12 03:39:31;;;;;;;14.83;11.90;;;;;;;9.42;71.80;99557.69;5030136;28;20213;-63
2023/04/12 03:41:59;;;;;;;14.57;12.13;;;;;;;9.40;72.33;99569.75;5028598;28;20289;-64
2023/04/12 03:44:27;;;;;;;15.20;12.83;;;;;;;9.32;72.14;99566.44;5028730;28;20206;-64
2023/04/12 03:46:55;;;;;;;15.97;12.93;;;;;;;9.28;72.80;99564.75;5029663;28;20245;-65
2023/04/12 03:49:23;;;;;;;15.03;12.27;;;;;;;9.27;72.68;99563.91;5030533;28;20202;-64
2023/04/12 03:51:51;;;;;;;14.80;12.83;;;;;;;9.26;72.86;99564.78;5025752;28;20735;-65
2023/04/12 03:54:20;;;;;;;12.60;11.20;;;;;;;9.28;73.21;99570.78;5025717;28;20674;-64
2023/04/12 03:56:49;;;;;;;14.93;12.20;;;;;;;9.31;72.99;99575.84;5029298;28;20661;-63
2023/04/12 03:59:18;;;;;;;16.80;12.43;;;;;;;9.33;73.18;99574.13;5030536;28;20285;-68
2023/04/12 04:01:46;;;;;;;14.37;12.40;;;;;;;9.35;72.88;99576.66;5024610;28;20222;-62
2023/04/12 04:04:14;;;;;;;17.33;12.10;;;;;;;9.36;73.55;99574.09;5028380;28;20210;-63
2023/04/12 04:06:43;;;;;;;16.23;11.67;;;;;;;9.38;72.49;99571.47;5024507;28;20210;-63
2023/04/12 04:09:11;;;;;;;13.53;11.20;;;;;;;9.40;72.25;99569.75;5029226;28;20198;-63
2023/04/12 04:11:39;;;;;;;13.23;11.50;;;;;;;9.39;72.35;99563.75;5027755;28;20245;-64
2023/04/12 04:14:08;;;;;;;14.03;11.97;;;;;;;9.41;72.82;99564.56;5030995;28;20554;-64
2023/04/12 04:16:36;;;;;;;13.73;11.57;;;;;;;9.42;71.97;99562.84;5028468;28;20598;-63
2023/04/12 04:19:04;;;;;;;16.80;11.43;;;;;;;9.43;72.03;99570.56;5029909;28;20203;-62
2023/04/12 04:21:32;;;;;;;13.07;11.37;;;;;;;9.42;72.77;99573.13;5022165;28;20598;-63
2023/04/12 04:24:01;;;;;;;16.93;12.07;;;;;;;9.44;73.38;99568.81;5023354;28;20269;-66
2023/04/12 04:26:32;;;;;;;16.07;11.80;;;;;;;9.46;72.45;99566.22;5025080;28;20198;-67
2023/04/12 04:29:03;;;;;;;14.50;12.23;;;;;;;9.42;72.77;99567.97;5027845;28;20203;-64
2023/04/12 04:31:35;;;;;;;13.67;11.20;;;;;;;9.42;72.34;99573.13;5030594;28;20688;-66
2023/04/12 04:34:05;;;;;;;13.87;11.77;;;;;;;9.40;73.16;99586.03;5029915;28;20254;-66
2023/04/12 04:36:34;;;;;;;15.40;12.07;;;;;;;9.36;72.57;99586.09;5031217;28;21029;-66
2023/04/12 04:39:03;;;;;;;15.93;11.73;;;;;;;9.42;71.92;99591.13;5030079;28;20272;-71
2023/04/12 04:41:33;;;;;;;15.27;12.27;;;;;;;9.40;72.04;99596.31;5034719;28;20601;-66
2023/04/12 04:44:03;;;;;;;14.10;11.33;;;;;;;9.35;72.53;99592.97;5034898;28;20579;-67
2023/04/12 04:46:33;;;;;;;15.53;12.60;;;;;;;9.36;73.16;99598.94;5030953;28;20207;-67
2023/04/12 04:49:01;;;;;;;15.93;12.40;;;;;;;9.38;73.17;99604.91;5034301;28;20210;-67
2023/04/12 04:51:29;;;;;;;16.20;12.07;;;;;;;9.36;72.34;99606.66;5028367;28;20210;-66
2023/04/12 04:53:57;;;;;;;13.87;11.97;;;;;;;9.40;72.49;99610.88;5034562;28;20214;-67
2023/04/12 04:56:25;;;;;;;14.67;11.87;;;;;;;9.41;71.93;99603.13;5033100;28;20565;-68
2023/04/12 04:58:55;;;;;;;14.97;12.30;;;;;;;9.44;72.93;99612.53;5033918;28;20206;-67
2023/04/12 05:01:27;;;;;;;15.60;11.50;;;;;;;9.46;72.40;99609.94;5030343;28;20210;-67
2023/04/12 05:03:56;;;;;;;16.87;12.70;;;;;;;9.44;72.58;99604.81;5025996;28;20210;-70
2023/04/12 05:06:26;;;;;;;14.00;11.67;;;;;;;9.43;71.76;99605.72;5027829;28;20203;-71
2023/04/12 05:08:55;;;;;;;15.60;12.30;;;;;;;9.43;72.19;99606.56;5031257;28;20207;-72
2023/04/12 05:11:23;;;;;;;15.70;11.70;;;;;;;9.46;72.25;99609.94;5029832;28;20207;-68
2023/04/12 05:13:51;;;;;;;14.13;11.80;;;;;;;9.48;71.42;99603.91;5029246;28;20697;-66
2023/04/12 05:16:19;;;;;;;15.83;12.00;;;;;;;9.49;71.80;99605.59;5030121;28;20698;-71
2023/04/12 05:18:47;;;;;;;14.83;11.60;;;;;;;9.51;71.44;99613.31;5032327;28;20288;-66
2023/04/12 05:21:16;;;;;;;12.90;11.37;;;;;;;9.53;72.17;99627.81;5030713;28;20198;-66
2023/04/12 05:23:46;;;;;;;13.53;11.73;;;;;;;9.52;71.96;99621.00;5019089;28;20222;-72
2023/04/12 05:26:14;;;;;;;14.93;12.17;;;;;;;9.53;71.92;99614.13;5029645;28;20232;-68
2023/04/12 05:28:42;;;;;;;14.77;12.37;;;;;;;9.55;70.77;99615.81;5030121;28;20256;-69
2023/04/12 05:31:10;;;;;;;14.73;12.33;;;;;;;9.57;71.18;99611.50;5026545;28;20226;-70
2023/04/12 05:33:38;;;;;;;17.60;12.73;;;;;;;9.59;71.76;99608.91;5027424;28;20206;-70
2023/04/12 05:36:07;;;;;;;14.43;12.43;;;;;;;9.63;70.72;99603.69;5030063;28;20281;-72
2023/04/12 05:38:36;;;;;;;14.90;12.27;;;;;;;9.63;70.81;99605.41;5031681;28;20752;-72
2023/04/12 05:41:06;;;;;;;15.47;12.87;;;;;;;9.65;71.25;99611.41;5029231;28;20673;-74
2023/04/12 05:43:36;;;;;;;17.73;13.13;;;;;;;9.67;70.48;99607.91;5027582;28;20704;-71
2023/04/12 05:46:06;;;;;;;16.17;12.83;;;;;;;9.68;70.84;99604.47;5026253;28;20222;-69
2023/04/12 05:48:35;;;;;;;18.70;14.33;;;;;;;9.71;70.43;99601.00;5033031;28;20217;-62
2023/04/12 05:51:04;;;;;;;25.00;15.40;;;;;;;9.74;70.27;99603.53;5029517;28;20206;-69
2023/04/12 05:53:32;;;;;;;18.17;14.23;;;;;;;9.77;69.93;99603.47;5024241;28;20650;-68
2023/04/12 05:56:01;;;;;;;24.73;16.90;;;;;;;9.80;69.74;99612.88;5027593;28;20202;-68
2023/04/12 05:58:29;;;;;;;24.13;16.53;;;;;;;9.72;69.88;99607.84;5027858;28;20653;-68
2023/04/12 06:00:57;;;;;;;22.13;16.17;;;;;;;9.75;69.15;99606.94;5028297;28;20253;-67
2023/04/12 06:03:25;;;;;;;20.10;15.67;;;;;;;9.77;69.44;99605.22;5023321;28;20565;-69
2023/04/12 06:05:53;;;;;;;21.10;15.60;;;;;;;9.82;69.63;99605.97;5026899;28;20213;-65
2023/04/12 06:08:21;;;;;;;24.40;16.40;;;;;;;9.85;69.48;99611.06;5031022;28;20268;-70
2023/04/12 06:10:49;;;;;;;26.20;18.87;;;;;;;9.94;69.29;99616.06;5033058;28;20215;-65
2023/04/12 06:13:19;;;;;;;24.10;17.17;;;;;;;9.94;68.68;99608.34;5030074;28;20210;-66
2023/04/12 06:15:46;;;;;;;25.23;19.40;;;;;;;9.91;68.80;99606.69;5033722;28;20241;-66
2023/04/12 06:18:14;;;;;;;24.03;17.03;;;;;;;9.88;68.33;99613.59;5033428;28;20199;-64
2023/04/12 06:20:42;;;;;;;22.23;15.70;;;;;;;9.88;69.20;99609.31;5033385;28;20716;-67
2023/04/12 06:23:10;;;;;;;17.73;14.37;;;;;;;9.87;69.15;99607.63;5031996;28;20651;-66
2023/04/12 06:25:38;;;;;;;18.73;14.23;;;;;;;9.89;69.22;99613.56;5030023;28;20592;-65
2023/04/12 06:28:06;;;;;;;17.60;14.53;;;;;;;9.93;69.63;99616.94;5033228;28;20229;-65
2023/04/12 06:30:36;;;;;;;21.90;14.90;;;;;;;9.95;68.56;99616.94;5031779;28;20677;-65
2023/04/12 06:33:04;;;;;;;20.07;14.77;;;;;;;9.93;69.26;99598.94;5027991;28;20234;-64
2023/04/12 06:35:32;;;;;;;18.40;13.90;;;;;;;10.02;68.50;99614.25;5025670;28;20203;-65
2023/04/12 06:38:00;;;;;;;18.87;14.07;;;;;;;10.08;68.96;99619.28;5025453;28;20206;-66
2023/04/12 06:40:29;;;;;;;19.63;15.47;;;;;;;10.13;68.19;99608.91;5029329;28;20207;-67
2023/04/12 06:42:57;;;;;;;16.53;13.13;;;;;;;10.14;67.95;99606.31;5029663;28;20210;-66
2023/04/12 06:45:25;;;;;;;18.10;14.70;;;;;;;10.10;67.85;99614.97;5029487;28;20233;-66
2023/04/12 06:47:55;;;;;;;18.60;14.57;;;;;;;10.11;67.46;99616.66;5029219;28;20203;-65
2023/04/12 06:50:25;;;;;;;20.13;14.60;;;;;;;10.10;67.90;99620.09;5024740;28;20207;-67
2023/04/12 06:52:53;;;;;;;20.43;14.13;;;;;;;10.04;68.27;99624.50;5026587;28;20199;-67
2023/04/12 06:55:21;;;;;;;22.40;15.20;;;;;;;9.98;68.07;99619.44;5026534;28;20645;-65
2023/04/12 06:57:50;;;;;;;18.03;14.33;;;;;;;9.98;69.28;99624.59;5028538;28;20233;-65
2023/04/12 07:00:19;;;;;;;18.80;14.07;;;;;;;10.04;68.68;99620.19;5026288;28;20290;-64
2023/04/12 07:02:47;;;;;;;19.43;13.50;;;;;;;10.10;68.90;99621.84;5025883;28;20569;-62
2023/04/12 07:05:17;;;;;;;17.70;14.30;;;;;;;10.18;68.55;99622.56;5028019;28;20228;-62
2023/04/12 07:07:45;;;;;;;19.20;14.70;;;;;;;10.24;67.98;99629.34;5031065;28;20222;-67
2023/04/12 07:10:13;;;;;;;16.53;13.90;;;;;;;10.28;67.88;99631.00;5027705;28;20780;-66
2023/04/12 07:12:41;;;;;;;18.07;13.67;;;;;;;10.31;67.58;99633.50;5028119;28;20229;-65
2023/04/12 07:15:10;;;;;;;19.10;14.00;;;;;;;10.30;67.12;99637.81;5023922;28;20202;-67
2023/04/12 07:17:38;;;;;;;17.10;13.73;;;;;;;10.23;67.31;99625.88;5030477;28;20661;-65
2023/04/12 07:20:06;;;;;;;16.10;12.90;;;;;;;10.29;66.79;99637.84;5027846;28;20215;-69
2023/04/12 07:22:36;;;;;;;17.83;15.27;;;;;;;10.29;67.45;99640.44;5022202;28;20242;-71
2023/04/12 07:25:08;;;;;;;17.43;14.50;;;;;;;10.23;67.03;99638.75;5024008;28;20237;-68
2023/04/12 07:27:36;;;;;;;15.27;13.63;;;;;;;10.25;67.27;99629.34;5024945;28;20244;-67
2023/04/12 07:30:05;;;;;;;16.97;13.93;;;;;;;10.29;67.24;99630.13;5018537;28;20237;-72
2023/04/12 07:32:33;;;;;;;15.73;13.27;;;;;;;10.32;67.20;99630.09;5026446;28;20195;-69
2023/04/12 07:35:01;;;;;;;17.27;13.50;;;;;;;10.36;67.04;99631.72;5026212;28;20763;-72
2023/04/12 07:37:29;;;;;;;16.60;13.57;;;;;;;10.37;67.46;99625.69;5028444;28;20463;-74
2023/04/12 07:39:58;;;;;;;15.70;13.93;;;;;;;10.37;66.70;99623.13;5027413;28;20273;-62
2023/04/12 07:42:26;;;;;;;18.33;13.03;;;;;;;10.34;67.26;99620.59;5029363;28;20573;-66
2023/04/12 07:44:54;;;;;;;16.70;13.83;;;;;;;10.32;67.14;99630.09;5030156;28;20700;-66
2023/04/12 07:47:22;;;;;;;16.17;12.87;;;;;;;10.24;67.00;99631.91;5031316;28;20203;-69
2023/04/12 07:49:50;;;;;;;18.47;14.00;;;;;;;10.16;67.23;99632.88;5028895;28;20207;-65
2023/04/12 07:52:18;;;;;;;14.03;12.00;;;;;;;10.15;68.28;99633.75;5030550;28;20664;-63
2023/04/12 07:54:45;;;;;;;16.40;12.47;;;;;;;10.20;67.47;99637.97;5029985;28;20202;-67
2023/04/12 07:57:15;;;;;;;18.60;13.80;;;;;;;10.25;67.05;99639.63;5026452;28;20670;-67
2023/04/12 07:59:43;;;;;;;16.50;11.87;;;;;;;10.26;67.08;99630.19;5023927;28;20665;-65
2023/04/12 08:02:11;;;;;;;17.07;13.53;;;;;;;10.29;67.28;99628.41;5029825;28;20592;-66
2023/04/12 08:04:42;;;;;;;17.77;12.00;;;;;;;10.34;67.31;99636.03;5023538;28;20215;-67
2023/04/12 08:07:11;;;;;;;16.03;13.07;;;;;;;10.43;67.32;99633.31;5026349;28;20203;-66
2023/04/12 08:09:39;;;;;;;15.90;13.17;;;;;;;10.51;65.99;99640.91;5025082;28;20203;-65
2023/04/12 08:12:07;;;;;;;16.40;13.77;;;;;;;10.51;66.61;99639.19;5028520;28;20569;-66
2023/04/12 08:14:36;;;;;;;17.40;13.87;;;;;;;10.50;66.24;99640.06;5020996;28;20273;-67
2023/04/12 08:17:07;;;;;;;17.63;14.13;;;;;;;10.45;66.73;99644.44;5030649;28;20226;-66
2023/04/12 08:19:35;;;;;;;17.37;13.17;;;;;;;10.40;66.73;99649.66;5025453;28;20653;-67
2023/04/12 08:22:03;;;;;;;18.07;13.77;;;;;;;10.35;66.75;99656.63;5028132;28;20253;-70
2023/04/12 08:24:32;;;;;;;19.27;13.67;;;;;;;10.30;67.04;99637.81;5025860;28;20222;-65
2023/04/12 08:27:01;;;;;;;17.77;13.97;;;;;;;10.29;67.15;99651.56;5027408;28;20612;-66
2023/04/12 08:29:29;;;;;;;14.43;12.07;;;;;;;10.27;67.30;99647.31;5024018;28;20383;-66
2023/04/12 08:32:00;;;;;;;16.63;13.50;;;;;;;10.27;67.13;99657.63;5013546;28;20241;-65
2023/04/12 08:34:28;;;;;;;18.57;13.53;;;;;;;10.23;66.24;99661.09;5030060;28;20214;-66
2023/04/12 08:36:59;;;;;;;15.93;13.20;;;;;;;10.22;67.11;99669.69;5025948;28;20218;-64
2023/04/12 08:39:27;;;;;;;18.13;13.50;;;;;;;10.24;67.51;99662.81;5028376;28;20206;-66
2023/04/12 08:41:56;;;;;;;17.87;13.53;;;;;;;10.26;66.77;99671.38;5023061;28;20198;-68
2023/04/12 08:44:39;;;;;;;17.87;13.73;;;;;;;10.18;67.23;99662.91;5030585;28;20290;-68
2023/04/12 08:47:10;;;;;;;18.20;13.60;;;;;;;10.11;66.85;99659.56;5023850;28;20198;-68
2023/04/12 08:49:38;;;;;;;17.80;14.30;;;;;;;10.06;67.67;99654.50;5023106;28;20662;-69
2023/04/12 08:52:10;;;;;;;18.83;14.40;;;;;;;10.04;67.05;99640.78;5029550;28;20661;-71
2023/04/12 08:54:38;;;;;;;16.47;14.13;;;;;;;10.35;67.60;99615.44;5029805;28;20724;-68
2023/04/12 08:57:09;;;;;;;16.67;13.90;;;;;;;10.97;66.63;99615.13;5027144;28;20249;-73
2023/04/12 08:59:38;;;;;;;17.33;14.23;;;;;;;11.44;65.71;99604.69;5027711;28;20207;-67
2023/04/12 09:02:06;;;;;;;17.27;14.17;;;;;;;11.96;64.23;99601.75;5025347;28;20203;-65
2023/04/12 09:04:47;;;;;;;15.47;13.03;;;;;;;12.42;62.60;99613.53;5026332;28;20206;-68
2023/04/12 09:07:16;;;;;;;18.73;14.57;;;;;;;12.49;59.38;99615.06;5019087;28;20330;-73
2023/04/12 09:09:44;;;;;;;17.40;14.13;;;;;;;12.28;59.86;99603.53;5027947;28;20225;-72
2023/04/12 09:12:14;;;;;;;20.13;13.90;;;;;;;12.24;60.67;99611.41;5026378;28;20249;-74
2023/04/12 09:14:43;;;;;;;19.37;14.73;;;;;;;12.19;60.43;99610.69;5030563;28;20198;-67
2023/04/12 09:17:25;;;;;;;19.47;13.33;;;;;;;12.03;60.49;99621.38;5027358;28;20646;-65
2023/04/12 09:19:55;;;;;;;17.27;13.67;;;;;;;11.91;61.66;99621.69;5024267;28;20744;-66
2023/04/12 09:22:33;;;;;;;14.17;12.10;;;;;;;11.92;61.76;99612.22;5026118;28;20234;-65
2023/04/12 09:25:01;;;;;;;17.73;13.47;;;;;;;12.04;61.59;99615.34;5026592;28;20675;-67
2023/04/12 09:27:29;;;;;;;17.53;13.23;;;;;;;12.28;61.19;99615.63;5028277;28;20242;-71
2023/04/12 09:30:07;;;;;;;19.63;13.30;;;;;;;12.44;60.17;99611.75;5027710;28;20195;-73
2023/04/12 09:32:37;;;;;;;16.33;13.90;;;;;;;12.44;59.87;99611.75;5029589;28;20589;-71
2023/04/12 09:35:07;;;;;;;16.53;13.37;;;;;;;12.38;59.78;99611.91;5028063;28;20620;-74
2023/04/12 09:37:36;;;;;;;16.27;13.93;;;;;;;12.32;59.47;99607.75;5030359;28;20649;-72
2023/04/12 09:40:05;;;;;;;17.97;15.00;;;;;;;12.27;59.60;99611.34;5029923;28;20643;-71
2023/04/12 09:42:34;;;;;;;19.03;13.60;;;;;;;12.31;59.70;99603.47;5029200;28;20673;-73
2023/04/12 09:45:20;;;;;;;14.40;12.90;;;;;;;12.39;59.83;99608.44;5026842;28;20231;-70
2023/04/12 09:47:49;;;;;;;15.73;12.70;;;;;;;12.34;59.38;99605.13;5030194;28;20210;-72
2023/04/12 09:50:22;;;;;;;16.90;14.13;;;;;;;12.43;59.58;99612.63;5033079;28;20669;-70
2023/04/12 09:52:51;;;;;;;17.67;13.90;;;;;;;12.65;58.45;99609.50;5033659;28;20624;-71
2023/04/12 09:55:21;;;;;;;20.23;13.90;;;;;;;12.69;57.38;99603.34;5026207;28;20218;-72
2023/04/12 09:57:51;;;;;;;17.00;13.47;;;;;;;12.78;57.66;99598.78;5029440;28;20222;-69
2023/04/12 10:00:22;;;;;;;19.20;14.27;;;;;;;13.02;57.76;99594.63;5026030;28;20654;-71
2023/04/12 10:02:51;;;;;;;14.67;12.47;;;;;;;13.40;57.16;99597.88;5027644;28;20662;-68
2023/04/12 10:05:23;;;;;;;13.57;12.10;;;;;;;13.86;55.24;99598.19;5027994;28;20214;-64
2023/04/12 10:07:52;;;;;;;15.37;12.60;;;;;;;14.18;53.91;99594.56;5025469;28;20216;-70
2023/04/12 10:10:22;;;;;;;14.17;12.50;;;;;;;14.21;53.53;99595.28;5025597;28;20207;-69
2023/04/12 10:12:51;;;;;;;14.70;11.87;;;;;;;14.11;53.78;99598.25;5028919;28;20214;-65
2023/04/12 10:15:20;;;;;;;14.00;12.03;;;;;;;14.20;53.42;99597.91;5033305;28;20268;-66
2023/04/12 10:17:51;;;;;;;15.30;12.37;;;;;;;14.25;52.55;99601.22;5029460;28;20202;-66
2023/04/12 10:20:22;;;;;;;16.53;12.50;;;;;;;14.09;52.47;99600.03;5033611;28;20650;-68
2023/04/12 10:22:58;;;;;;;17.13;13.70;;;;;;;13.96;52.57;99607.38;5027131;28;20342;-68
2023/04/12 10:25:29;;;;;;;14.37;12.27;;;;;;;13.80;52.77;99606.97;5029382;28;20708;-72
2023/04/12 10:28:01;;;;;;;15.43;11.27;;;;;;;13.52;53.21;99618.22;5027335;28;20206;-66
2023/04/12 10:30:31;;;;;;;15.00;12.50;;;;;;;13.35;54.24;99614.44;5025826;28;20207;-66
2023/04/12 10:33:13;;;;;;;15.93;12.07;;;;;;;13.41;54.76;99602.16;5025982;28;20203;-65
2023/04/12 10:35:58;;;;;;;13.67;11.10;;;;;;;13.60;54.97;99605.03;5024694;28;20199;-69
2023/04/12 10:38:31;;;;;;;14.07;11.87;;;;;;;13.75;54.19;99608.88;5024677;28;20203;-68
2023/04/12 10:41:12;;;;;;;12.43;11.10;;;;;;;13.88;53.58;99611.91;5027168;28;20552;-67
2023/04/12 10:43:40;;;;;;;16.50;12.07;;;;;;;14.13;54.38;99601.59;5022495;28;20209;-67
2023/04/12 10:46:08;;;;;;;15.40;13.43;;;;;;;14.48;54.00;99601.28;5026796;28;20221;-66
2023/04/12 10:48:37;;;;;;;12.37;11.13;;;;;;;14.61;53.29;99598.28;5028696;28;20202;-63
2023/04/12 10:51:16;;;;;;;14.53;10.60;;;;;;;14.59;53.02;99598.34;5032360;28;20687;-65
2023/04/12 10:53:45;;;;;;;15.23;11.73;;;;;;;14.46;53.08;99600.47;5020235;28;20298;-67
2023/04/12 10:56:41;;;;;;;13.03;11.00;;;;;;;14.42;52.42;99604.06;5020802;28;20226;-62
2023/04/12 10:59:10;;;;;;;12.87;11.33;;;;;;;14.64;52.58;99596.41;4992628;28;20264;-64
2023/04/12 11:01:38;;;;;;;13.77;10.83;;;;;;;15.27;51.58;99604.50;5026760;28;20202;-65
2023/04/12 11:04:08;;;;;;;15.80;11.67;;;;;;;15.53;49.87;99589.66;5028158;28;20622;-67
2023/04/12 11:06:48;;;;;;;12.53;10.90;;;;;;;15.69;48.70;99583.00;5021547;28;20218;-63
2023/04/12 11:09:24;;;;;;;14.00;11.10;;;;;;;15.87;49.11;99581.41;5023312;28;20301;-62
2023/04/12 11:11:55;;;;;;;12.90;10.88;;;;;;;16.21;47.67;99585.22;5026701;28;20202;-63
2023/04/12 11:14:27;;;;;;;13.60;11.25;;;;;;;16.61;46.96;99581.75;5027186;28;20268;-64
2023/04/12 11:17:24;;;;;;;14.97;11.23;;;;;;;16.77;45.54;99577.59;5022798;28;20206;-66
2023/04/12 11:19:55;;;;;;;14.35;11.95;;;;;;;16.68;44.88;99572.78;5026978;28;20981;-67
2023/04/12 11:22:26;;;;;;;14.43;10.95;;;;;;;16.80;45.40;99576.63;5026103;28;20242;-66
2023/04/12 11:24:56;;;;;;;13.50;10.80;;;;;;;17.15;45.04;99570.63;5021967;28;20203;-65
2023/04/12 11:27:26;;;;;;;11.98;10.45;;;;;;;17.37;44.29;99562.66;5030231;28;20218;-63
2023/04/12 11:29:56;;;;;;;15.35;11.75;;;;;;;17.37;43.64;99562.66;5027349;28;20721;-64
2023/04/12 11:32:25;;;;;;;11.65;10.45;;;;;;;17.35;43.53;99563.69;5029848;28;20582;-65
2023/04/12 11:34:55;;;;;;;12.07;10.52;;;;;;;17.11;42.75;99557.84;5026189;28;20298;-62